Time;durP1;ratioP1;P1;durP2;ratioP2;P2;SDS_P1;SDS_P2;PMS_P1;PMS_P2;Temp;Humidity;BMP_temperature;BMP_pressure;BME280_temperature;BME280_humidity;BME280_pressure;Samples;Min_cycle;Max_cycle;Signal;HPM_P1;HPM_P2
2021/12/22 00:02:59;;;;;;;9.98;4.97;;;;;;;7.56;68.46;102644.00;5058603;28;20486;-94
2021/12/22 00:05:44;;;;;;;7.28;4.25;;;;;;;7.03;68.89;102592.94;5078575;28;20111;-95
2021/12/22 00:08:24;;;;;;;9.60;4.72;;;;;;;7.02;68.90;102584.22;5078734;28;20404;-94
2021/12/22 00:10:54;;;;;;;8.40;4.40;;;;;;;7.27;68.90;102628.19;5087128;28;20097;-93
2021/12/22 00:13:30;;;;;;;7.43;4.30;;;;;;;7.23;68.47;102610.44;5073309;28;20031;-95
2021/12/22 00:16:48;;;;;;;11.98;4.80;;;;;;;7.54;68.83;102664.63;5071471;28;20401;-93
2021/12/22 00:22:35;;;;;;;8.23;4.72;;;;;;;7.57;68.04;102627.59;5074383;28;20075;-94
2021/12/22 00:25:32;;;;;;;7.88;4.57;;;;;;;7.72;67.92;102652.47;5074628;28;20025;-94
2021/12/22 00:28:33;;;;;;;8.40;4.25;;;;;;;7.75;67.91;102647.59;5071436;28;20047;-95
2021/12/22 00:31:30;;;;;;;9.27;4.60;;;;;;;7.78;67.57;102654.75;5055539;28;20532;-94
2021/12/22 00:34:44;;;;;;;7.70;4.32;;;;;;;7.81;67.56;102649.88;5107022;28;20037;-94
2021/12/22 00:40:32;;;;;;;7.07;4.00;;;;;;;7.40;67.61;102602.59;5079920;28;20532;-95
2021/12/22 00:43:17;;;;;;;9.13;3.92;;;;;;;7.78;67.60;102680.75;5057330;28;20059;-92
2021/12/22 00:45:56;;;;;;;7.95;4.40;;;;;;;7.53;67.21;102623.81;5090220;28;20033;-95
2021/12/22 00:48:51;;;;;;;8.90;4.10;;;;;;;7.82;67.48;102680.28;5074381;28;20106;-94
2021/12/22 00:51:40;;;;;;;8.43;4.18;;;;;;;7.73;67.52;102680.31;5077004;28;20107;-94
2021/12/22 00:54:11;;;;;;;8.10;4.53;;;;;;;7.49;67.39;102636.34;5068275;28;20485;-96
2021/12/22 01:03:20;;;;;;;6.38;3.72;;;;;;;7.57;67.49;102645.81;5064432;28;20059;-96
2021/12/22 01:05:50;;;;;;;9.10;4.05;;;;;;;7.75;67.53;102693.50;5063786;28;20485;-96
2021/12/22 01:12:22;;;;;;;7.32;4.20;;;;;;;7.78;67.62;102665.16;5077262;28;20028;-96
2021/12/22 01:15:31;;;;;;;7.75;4.07;;;;;;;7.78;67.42;102667.75;5094058;27;20068;-95
2021/12/22 01:18:14;;;;;;;7.45;4.22;;;;;;;7.78;67.48;102672.97;5100309;27;20524;-96
2021/12/22 01:21:01;;;;;;;7.05;3.80;;;;;;;7.80;67.39;102662.72;5054828;28;20025;-95
2021/12/22 01:23:33;;;;;;;7.22;4.30;;;;;;;7.51;67.46;102624.41;5066205;28;20119;-96
2021/12/22 01:26:00;;;;;;;7.20;3.65;;;;;;;7.53;67.57;102620.28;5065454;28;20482;-95
2021/12/22 01:28:40;;;;;;;7.05;4.20;;;;;;;7.18;67.67;102602.22;5057962;28;20066;-95
2021/12/22 01:31:19;;;;;;;6.30;4.03;;;;;;;6.91;69.21;102632.50;5049143;28;20545;-95
2021/12/22 01:34:17;;;;;;;5.55;3.55;;;;;;;7.14;69.51;102676.34;5063131;28;20489;-96
2021/12/22 01:36:51;;;;;;;8.07;4.30;;;;;;;7.31;68.00;102633.81;5072628;28;20029;-95
2021/12/22 01:39:38;;;;;;;8.10;4.30;;;;;;;7.52;68.09;102665.25;5093132;28;20128;-94
2021/12/22 01:42:05;;;;;;;8.18;4.38;;;;;;;7.47;68.45;102675.22;5062948;28;20409;-96
2021/12/22 01:51:11;;;;;;;5.95;3.50;;;;;;;7.63;67.86;102663.69;5092660;28;20061;-96
2021/12/22 01:53:46;;;;;;;5.90;3.80;;;;;;;7.24;68.61;102626.19;5103545;27;20407;-96
2021/12/22 01:58:50;;;;;;;7.00;3.85;;;;;;;7.23;68.66;102619.16;5082098;28;20043;-95
2021/12/22 02:01:34;;;;;;;5.80;3.60;;;;;;;7.14;69.32;102614.00;5063738;28;20087;-96
2021/12/22 02:04:11;;;;;;;6.18;3.40;;;;;;;7.13;69.00;102590.44;5058777;28;20037;-95
2021/12/22 02:06:42;;;;;;;5.93;3.80;;;;;;;7.44;69.09;102646.31;5060589;28;20485;-92
2021/12/22 02:09:50;;;;;;;6.10;3.67;;;;;;;7.22;68.78;102588.75;5066475;28;20032;-96
2021/12/22 02:12:19;;;;;;;5.18;3.60;;;;;;;7.37;68.70;102615.31;5083124;28;20043;-96
2021/12/22 02:14:53;;;;;;;7.57;3.70;;;;;;;7.41;68.57;102612.25;5085140;28;20028;-95
2021/12/22 02:17:27;;;;;;;5.80;3.53;;;;;;;7.42;67.99;102600.16;5070739;28;20025;-96
2021/12/22 02:20:37;;;;;;;6.25;3.97;;;;;;;7.81;67.96;102641.13;5066963;28;20040;-95
2021/12/22 02:23:45;;;;;;;5.78;3.67;;;;;;;7.74;67.83;102635.34;5117494;27;20024;-96
2021/12/22 02:26:28;;;;;;;5.20;3.53;;;;;;;7.74;67.58;102619.72;5103044;27;20039;-95
2021/12/22 02:29:04;;;;;;;5.85;3.40;;;;;;;7.68;67.50;102593.16;5082597;28;20497;-94
2021/12/22 02:32:15;;;;;;;7.13;3.80;;;;;;;7.83;67.66;102636.97;5052381;28;20112;-95
2021/12/22 02:35:00;;;;;;;4.68;3.25;;;;;;;7.79;67.34;102629.66;5062023;28;20031;-96
2021/12/22 02:37:46;;;;;;;5.95;3.55;;;;;;;7.89;67.35;102629.75;5052186;28;20028;-96
2021/12/22 02:40:31;;;;;;;5.53;3.70;;;;;;;7.89;67.28;102632.38;5052339;28;20036;-95
2021/12/22 02:43:14;;;;;;;7.32;3.42;;;;;;;7.85;67.29;102620.78;5092086;28;20469;-95
2021/12/22 02:46:18;;;;;;;5.45;3.28;;;;;;;7.71;67.73;102628.94;5071201;28;20043;-95
2021/12/22 02:48:56;;;;;;;6.18;3.47;;;;;;;7.75;67.38;102618.06;5097714;28;20074;-96
2021/12/22 02:51:57;;;;;;;5.78;3.30;;;;;;;7.80;67.66;102627.22;5082394;28;20403;-95
2021/12/22 02:54:28;;;;;;;5.28;3.50;;;;;;;7.69;67.32;102604.47;5103143;28;20028;-96
2021/12/22 02:57:18;;;;;;;6.35;3.70;;;;;;;7.61;67.92;102624.53;5085062;28;20024;-96
2021/12/22 03:01:05;;;;;;;5.88;3.47;;;;;;;7.38;68.14;102598.94;5086553;28;20092;-96
2021/12/22 03:05:22;;;;;;;5.78;3.40;;;;;;;7.46;68.43;102644.78;5108082;28;20034;-96
2021/12/22 03:07:58;;;;;;;5.93;3.53;;;;;;;7.08;68.97;102613.38;5074419;28;20055;-95
2021/12/22 03:13:54;;;;;;;4.38;3.20;;;;;;;7.13;68.89;102604.38;5107076;28;20054;-96
2021/12/22 03:20:02;;;;;;;5.82;3.33;;;;;;;7.38;68.95;102653.50;5111240;28;20512;-96
2021/12/22 03:22:36;;;;;;;4.07;3.10;;;;;;;7.22;69.07;102614.75;5080054;28;20495;-96
2021/12/22 03:25:14;;;;;;;6.65;3.50;;;;;;;7.32;68.83;102633.06;5084478;28;20412;-96
2021/12/22 03:28:10;;;;;;;5.28;3.20;;;;;;;7.49;68.79;102662.34;5078699;28;20023;-95
2021/12/22 03:30:37;;;;;;;5.53;3.20;;;;;;;7.34;68.33;102622.78;5080654;28;20058;-96
2021/12/22 03:33:03;;;;;;;5.57;3.03;;;;;;;7.46;68.44;102634.38;5087680;28;20020;-95
2021/12/22 03:35:46;;;;;;;6.75;3.38;;;;;;;7.72;68.23;102654.16;5068746;28;20537;-96
2021/12/22 03:38:15;;;;;;;5.13;3.35;;;;;;;7.40;68.33;102620.78;5081395;28;20413;-94
2021/12/22 03:40:52;;;;;;;4.70;3.05;;;;;;;7.57;68.69;102657.91;5084671;28;20088;-96
2021/12/22 03:43:38;;;;;;;5.28;3.47;;;;;;;7.60;68.63;102665.97;5067839;28;20038;-96
2021/12/22 03:46:07;;;;;;;5.47;3.30;;;;;;;7.58;68.45;102668.47;5080212;28;20213;-95
2021/12/22 03:48:33;;;;;;;4.82;3.17;;;;;;;7.67;67.87;102645.03;5071700;28;20143;-94
2021/12/22 03:51:28;;;;;;;4.18;3.10;;;;;;;7.66;68.33;102659.72;5083794;27;20067;-94
2021/12/22 03:54:09;;;;;;;4.35;3.08;;;;;;;7.58;67.90;102629.47;5098886;27;20035;-95
2021/12/22 03:56:54;;;;;;;4.70;3.20;;;;;;;7.87;67.53;102665.13;5073899;27;20023;-95
2021/12/22 03:59:24;;;;;;;4.82;3.35;;;;;;;8.01;67.17;102669.03;5082366;28;20099;-94
2021/12/22 04:02:01;;;;;;;4.10;3.15;;;;;;;7.83;66.79;102629.19;5096947;27;20031;-96
2021/12/22 04:04:39;;;;;;;5.68;3.75;;;;;;;6.96;67.14;102500.50;5085858;27;20028;-95
2021/12/22 04:07:29;;;;;;;4.22;3.30;;;;;;;7.75;67.60;102671.00;5083761;28;20031;-94
2021/12/22 04:10:27;;;;;;;4.55;3.17;;;;;;;7.75;67.76;102671.00;5082179;28;20035;-96
2021/12/22 04:13:21;;;;;;;5.28;3.38;;;;;;;7.78;67.57;102675.56;5106145;27;20491;-94
2021/12/22 04:16:02;;;;;;;4.60;3.40;;;;;;;7.41;67.63;102606.09;5093683;27;20042;-95
2021/12/22 04:18:43;;;;;;;5.18;3.30;;;;;;;7.01;66.93;102526.94;5093700;27;20491;-94
2021/12/22 04:21:33;;;;;;;4.93;3.30;;;;;;;7.85;67.16;102683.19;5080108;28;20027;-94
2021/12/22 04:24:15;;;;;;;3.92;2.95;;;;;;;7.44;67.22;102609.00;5074011;27;20089;-94
2021/12/22 04:26:42;;;;;;;4.70;3.22;;;;;;;7.61;67.13;102639.22;5077289;28;20089;-95
2021/12/22 04:29:20;;;;;;;5.03;3.20;;;;;;;7.46;66.87;102620.47;5107695;27;20032;-96
2021/12/22 04:35:15;;;;;;;5.22;2.90;;;;;;;7.83;66.99;102683.81;5122234;27;20088;-96
2021/12/22 04:38:04;;;;;;;5.32;3.05;;;;;;;7.72;67.57;102709.69;5080700;28;20051;-95
2021/12/22 04:40:37;;;;;;;5.05;3.28;;;;;;;7.21;67.88;102671.75;5083458;28;20035;-95
2021/12/22 04:43:09;;;;;;;3.88;3.10;;;;;;;6.86;68.57;102656.22;5078171;28;20023;-96
2021/12/22 04:45:36;;;;;;;4.68;3.55;;;;;;;6.77;69.31;102658.78;5094916;28;20485;-95
2021/12/22 04:48:28;;;;;;;5.15;3.33;;;;;;;7.53;67.99;102713.88;5080679;28;20052;-96
2021/12/22 04:51:21;;;;;;;4.65;3.00;;;;;;;7.07;67.96;102654.78;5080559;28;20024;-95
2021/12/22 04:54:18;;;;;;;5.35;3.25;;;;;;;7.23;68.82;102709.19;5081959;28;20028;-94
2021/12/22 04:56:59;;;;;;;4.45;3.17;;;;;;;7.17;68.57;102682.59;5085242;28;21069;-95
2021/12/22 04:59:34;;;;;;;4.13;2.83;;;;;;;7.35;68.62;102723.41;5083576;28;20032;-96
2021/12/22 05:02:03;;;;;;;3.92;2.90;;;;;;;7.20;68.71;102682.94;5077820;28;20027;-94
2021/12/22 05:04:31;;;;;;;5.60;3.20;;;;;;;6.81;68.74;102624.56;5072102;28;20024;-95
2021/12/22 05:07:11;;;;;;;4.53;2.95;;;;;;;7.25;68.80;102692.06;5079992;28;20031;-95
2021/12/22 05:10:00;;;;;;;5.78;3.05;;;;;;;7.48;68.62;102726.44;5086268;28;20484;-96
2021/12/22 05:12:38;;;;;;;4.82;3.08;;;;;;;7.34;68.06;102691.31;5084387;27;20377;-94
2021/12/22 05:21:44;;;;;;;4.60;3.00;;;;;;;7.68;67.96;102720.59;5089316;27;20580;-96
2021/12/22 05:24:25;;;;;;;3.67;2.67;;;;;;;7.37;67.96;102672.50;5088957;27;20107;-96
2021/12/22 05:30:16;;;;;;;4.13;3.08;;;;;;;7.80;67.71;102728.66;5111895;27;20090;-94
2021/12/22 05:33:35;;;;;;;4.47;3.00;;;;;;;7.99;66.99;102743.44;5077030;28;20031;-94
2021/12/22 05:36:02;;;;;;;4.45;3.03;;;;;;;7.90;66.79;102720.06;5114425;28;20413;-96
2021/12/22 05:38:32;;;;;;;4.68;2.97;;;;;;;7.45;66.67;102655.03;5084637;28;20031;-94
2021/12/22 05:41:23;;;;;;;3.75;2.72;;;;;;;7.75;67.57;102735.09;5079505;28;20020;-91
2021/12/22 05:44:01;;;;;;;4.38;2.80;;;;;;;7.62;67.08;102701.78;5116654;27;20035;-93
2021/12/22 05:46:51;;;;;;;4.60;3.22;;;;;;;7.84;66.95;102740.28;5093909;28;20080;-94
2021/12/22 05:49:31;;;;;;;4.53;2.83;;;;;;;7.67;67.02;102704.84;5046725;28;20033;-92
2021/12/22 05:52:04;;;;;;;4.22;3.08;;;;;;;7.71;66.91;102700.06;5073156;28;20029;-95
2021/12/22 05:54:45;;;;;;;4.72;3.20;;;;;;;7.67;66.92;102705.75;5054293;28;20566;-95
2021/12/22 05:57:11;;;;;;;3.92;3.05;;;;;;;7.43;66.91;102670.50;5039385;28;20028;-95
2021/12/22 05:59:43;;;;;;;4.22;2.92;;;;;;;7.77;67.08;102736.16;5047810;28;20025;-96
2021/12/22 06:02:14;;;;;;;4.32;2.90;;;;;;;7.75;66.68;102725.59;5052735;28;20025;-95
2021/12/22 06:04:48;;;;;;;3.95;3.08;;;;;;;7.69;66.60;102711.09;5066207;28;20043;-95
2021/12/22 06:07:23;;;;;;;4.78;2.85;;;;;;;7.63;66.94;102708.81;5059052;28;20028;-95
2021/12/22 06:09:51;;;;;;;4.00;2.92;;;;;;;7.66;66.61;102722.13;5062669;28;20398;-94
2021/12/22 06:12:24;;;;;;;3.92;2.90;;;;;;;7.59;67.11;102740.47;5052625;28;20498;-95
2021/12/22 06:14:54;;;;;;;4.45;3.17;;;;;;;7.36;67.31;102724.31;5055484;28;20032;-95
2021/12/22 06:17:36;;;;;;;5.53;3.08;;;;;;;6.88;68.54;102717.03;5048191;28;20502;-95
2021/12/22 06:20:04;;;;;;;4.32;3.10;;;;;;;6.97;69.12;102743.91;5069751;28;20028;-95
2021/12/22 06:22:34;;;;;;;4.10;2.92;;;;;;;6.37;67.96;102574.38;5045538;28;20025;-95
2021/12/22 06:25:12;;;;;;;4.10;3.00;;;;;;;6.72;67.17;102611.59;5059183;28;20497;-96
2021/12/22 06:27:42;;;;;;;4.80;2.92;;;;;;;6.43;67.96;102615.56;5061314;28;20032;-95
2021/12/22 06:30:10;;;;;;;3.47;3.05;;;;;;;6.38;68.38;102601.22;5051072;28;20017;-95
2021/12/22 06:32:54;;;;;;;5.50;3.72;;;;;;;6.48;68.44;102633.44;5048756;28;20027;-96
2021/12/22 06:35:25;;;;;;;5.10;3.42;;;;;;;7.24;68.06;102727.56;5039685;28;20505;-94
2021/12/22 06:37:52;;;;;;;4.53;2.80;;;;;;;7.43;68.10;102764.06;5070591;28;20510;-94
2021/12/22 06:40:19;;;;;;;3.75;2.78;;;;;;;6.64;67.60;102604.72;5056791;28;20033;-96
2021/12/22 06:43:03;;;;;;;3.92;2.90;;;;;;;6.68;67.60;102601.66;5061527;28;20486;-96
2021/12/22 06:45:37;;;;;;;5.22;2.75;;;;;;;7.69;67.28;102765.72;5060355;28;20036;-95
2021/12/22 06:48:03;;;;;;;4.57;3.10;;;;;;;7.25;67.38;102705.06;5064027;28;20040;-95
2021/12/22 06:50:43;;;;;;;4.07;2.97;;;;;;;7.25;68.03;102726.78;5086708;28;20501;-91
2021/12/22 06:53:34;;;;;;;4.18;2.92;;;;;;;7.57;67.74;102775.81;5074310;28;20463;-93
2021/12/22 06:56:35;;;;;;;4.85;3.30;;;;;;;7.63;67.65;102772.91;5080185;28;20118;-93
2021/12/22 06:59:03;;;;;;;4.32;2.78;;;;;;;7.38;67.37;102722.78;5113156;28;20049;-94
2021/12/22 07:01:36;;;;;;;4.32;3.00;;;;;;;7.26;67.58;102713.03;5074896;28;20048;-93
2021/12/22 07:04:12;;;;;;;6.10;3.58;;;;;;;7.52;67.31;102766.66;5064442;28;20497;-96
2021/12/22 07:06:44;;;;;;;5.00;3.35;;;;;;;7.06;67.65;102736.09;5090015;28;20039;-96
2021/12/22 07:09:37;;;;;;;7.45;3.78;;;;;;;7.37;67.07;102783.34;5088521;28;20482;-92
2021/12/22 07:12:25;;;;;;;7.85;4.85;;;;;;;7.31;67.24;102776.75;5100139;28;20096;-91
2021/12/22 07:14:55;;;;;;;9.25;5.20;;;;;;;7.11;68.24;102779.03;5100308;28;20032;-94
2021/12/22 07:17:43;;;;;;;6.88;4.68;;;;;;;7.14;67.64;102771.56;5076329;28;20119;-95
2021/12/22 07:20:12;;;;;;;7.40;4.55;;;;;;;7.10;67.78;102775.53;5100178;28;20023;-95
2021/12/22 07:22:46;;;;;;;8.27;5.10;;;;;;;6.44;68.23;102691.00;5065061;28;20024;-93
2021/12/22 07:25:18;;;;;;;8.70;4.50;;;;;;;6.84;68.69;102765.13;5079311;28;20081;-94
2021/12/22 07:28:03;;;;;;;7.28;4.47;;;;;;;6.85;68.36;102769.53;5084467;28;20451;-91
2021/12/22 07:31:01;;;;;;;6.15;4.30;;;;;;;6.75;68.79;102764.19;5072789;28;20136;-93
2021/12/22 07:33:52;;;;;;;6.95;4.47;;;;;;;6.78;68.46;102769.69;5096001;28;20035;-91
2021/12/22 07:36:23;;;;;;;8.60;5.30;;;;;;;6.35;68.76;102713.44;5096133;28;20107;-91
2021/12/22 07:39:00;;;;;;;7.70;5.10;;;;;;;6.66;68.58;102771.03;5080645;28;20036;-91
2021/12/22 07:41:27;;;;;;;7.10;4.95;;;;;;;6.16;69.19;102733.03;5103823;28;20032;-91
2021/12/22 07:43:54;;;;;;;9.45;6.13;;;;;;;6.15;69.04;102739.91;5075696;28;20197;-92
2021/12/22 07:46:21;;;;;;;9.00;5.47;;;;;;;6.18;68.90;102714.28;5084221;28;20400;-89
2021/12/22 07:49:18;;;;;;;9.68;5.72;;;;;;;6.57;69.07;102777.91;5079493;28;20048;-93
2021/12/22 07:51:57;;;;;;;8.27;5.43;;;;;;;6.31;68.75;102743.31;5090817;28;20528;-91
2021/12/22 07:55:02;;;;;;;11.10;6.20;;;;;;;6.51;69.05;102781.69;5082529;28;20115;-95
2021/12/22 07:57:27;;;;;;;8.27;5.40;;;;;;;6.28;68.34;102724.81;5088450;28;20041;-96
2021/12/22 07:59:59;;;;;;;10.55;5.50;;;;;;;6.23;68.20;102706.97;5082108;28;20096;-94
2021/12/22 08:02:25;;;;;;;10.90;5.97;;;;;;;5.78;68.31;102634.94;5083976;28;20107;-96
2021/12/22 08:05:12;;;;;;;8.68;5.72;;;;;;;6.65;68.49;102783.13;5079741;28;20059;-96
2021/12/22 08:11:00;;;;;;;8.20;5.50;;;;;;;6.25;68.31;102729.72;5109812;28;20416;-95
2021/12/22 08:18:50;;;;;;;7.65;5.07;;;;;;;6.67;68.23;102786.78;5791945;23;20501;-93
2021/12/22 08:21:21;;;;;;;8.05;5.45;;;;;;;5.61;68.18;102595.97;4938628;29;20036;-94
2021/12/22 08:23:54;;;;;;;8.07;5.40;;;;;;;6.31;68.63;102750.19;4943604;28;20031;-94
2021/12/22 08:26:31;;;;;;;6.90;5.03;;;;;;;6.23;68.44;102730.31;4943737;28;20416;-93
2021/12/22 08:29:00;;;;;;;;;;;;;;;6.59;68.19;102776.38;4945537;28;20177;-93
2021/12/22 08:32:07;;;;;;;7.15;5.03;;;;;;;6.47;68.60;102786.41;4960774;28;19917;-92
2021/12/22 08:34:37;;;;;;;6.90;4.85;;;;;;;6.47;68.42;102783.81;4959117;28;20398;-95
2021/12/22 08:40:02;;;;;;;7.05;4.82;;;;;;;6.51;68.65;102781.69;4946017;28;20035;-94
2021/12/22 08:42:54;;;;;;;7.40;5.20;;;;;;;6.49;68.90;102791.00;4934377;28;20027;-94
2021/12/22 08:45:22;;;;;;;6.60;4.60;;;;;;;5.83;68.80;102701.13;4957301;28;20019;-91
2021/12/22 08:47:47;;;;;;;7.72;5.22;;;;;;;6.18;69.05;102755.81;4966219;28;20086;-93
2021/12/22 08:50:20;;;;;;;7.80;5.28;;;;;;;6.44;68.69;102780.91;4960292;28;20097;-94
2021/12/22 08:52:46;;;;;;;6.75;4.43;;;;;;;6.22;69.18;102744.97;4931023;28;20043;-93
2021/12/22 08:55:16;;;;;;;10.50;6.10;;;;;;;6.11;70.05;102774.06;4954427;28;20102;-95
2021/12/22 08:57:42;;;;;;;7.85;5.10;;;;;;;5.86;71.34;102754.97;4975856;28;20094;-96
2021/12/22 09:00:11;;;;;;;10.43;4.70;;;;;;;5.18;71.67;102613.16;4964516;28;20015;-95
2021/12/22 09:02:45;;;;;;;7.15;4.82;;;;;;;6.19;72.06;102770.59;4939937;28;20118;-94
2021/12/22 09:05:31;;;;;;;11.77;4.90;;;;;;;6.24;72.42;102773.66;4955706;28;20058;-94
2021/12/22 09:08:09;;;;;;;10.00;4.65;;;;;;;6.26;72.70;102772.13;4957303;28;20449;-95
2021/12/22 09:10:41;;;;;;;11.98;4.70;;;;;;;5.25;73.30;102587.16;4977604;28;20027;-94
2021/12/22 09:13:31;;;;;;;9.15;4.70;;;;;;;6.29;73.73;102759.50;4956586;28;20043;-94
2021/12/22 09:16:36;;;;;;;11.57;4.60;;;;;;;5.21;74.14;102576.31;4979482;28;20018;-94
2021/12/22 09:19:09;;;;;;;9.73;5.05;;;;;;;5.72;74.38;102648.19;4987564;28;20069;-94
2021/12/22 09:21:37;;;;;;;11.57;4.78;;;;;;;5.17;74.42;102551.75;4946321;28;20556;-95
2021/12/22 09:24:22;;;;;;;10.43;4.63;;;;;;;5.45;74.72;102588.31;4962587;28;20015;-95
2021/12/22 09:26:51;;;;;;;7.97;4.60;;;;;;;5.38;74.76;102562.53;4968593;28;20042;-94
2021/12/22 09:29:19;;;;;;;9.98;4.72;;;;;;;5.35;75.07;102551.84;4950694;28;20022;-95
2021/12/22 09:31:51;;;;;;;12.48;4.65;;;;;;;5.47;75.71;102564.38;4942571;28;20035;-94
2021/12/22 09:34:18;;;;;;;11.15;4.70;;;;;;;5.81;76.93;102626.56;4949241;28;20074;-94
2021/12/22 09:36:45;;;;;;;13.13;5.28;;;;;;;5.92;77.68;102631.16;4950946;29;20031;-93
2021/12/22 09:39:17;;;;;;;9.38;4.82;;;;;;;6.11;78.36;102640.09;4945760;28;20023;-93
2021/12/22 09:41:51;;;;;;;11.65;5.00;;;;;;;6.01;79.93;102619.19;4930648;29;20023;-94
2021/12/22 09:44:18;;;;;;;13.65;5.00;;;;;;;6.03;80.73;102614.13;4959134;28;20034;-93
2021/12/22 09:46:53;;;;;;;11.40;4.70;;;;;;;6.43;81.28;102670.06;4932077;28;20035;-94
2021/12/22 09:52:27;;;;;;;11.70;5.05;;;;;;;6.55;81.68;102680.78;4952160;28;20035;-94
2021/12/22 09:55:01;;;;;;;9.43;4.88;;;;;;;5.86;82.04;102548.50;4945231;28;20023;-94
2021/12/22 09:57:33;;;;;;;12.68;5.07;;;;;;;5.91;81.33;102536.91;4930148;29;20034;-93
2021/12/22 10:00:34;;;;;;;7.65;4.60;;;;;;;6.87;81.54;102708.28;4946311;28;20026;-92
2021/12/22 10:03:12;;;;;;;10.35;5.63;;;;;;;6.48;81.52;102635.13;4960177;28;20113;-95
2021/12/22 10:05:41;;;;;;;10.32;4.72;;;;;;;6.91;81.08;102706.91;4944316;28;20034;-94
2021/12/22 10:08:49;;;;;;;10.32;4.68;;;;;;;6.92;81.30;102693.16;4943481;28;20049;-95
2021/12/22 10:11:15;;;;;;;13.18;4.70;;;;;;;6.73;81.26;102667.97;4934920;28;20035;-92
2021/12/22 10:13:44;;;;;;;9.55;4.65;;;;;;;6.76;81.88;102659.56;4943094;28;20118;-94
2021/12/22 10:16:23;;;;;;;12.15;5.03;;;;;;;5.91;81.76;102521.34;4941893;29;20019;-94
2021/12/22 10:19:06;;;;;;;11.68;4.93;;;;;;;6.19;81.29;102552.69;4922621;28;20567;-95
2021/12/22 10:21:36;;;;;;;10.65;4.75;;;;;;;6.47;81.31;102597.84;4931185;29;20038;-94
2021/12/22 10:24:06;;;;;;;13.15;4.72;;;;;;;6.59;80.94;102608.56;4940879;28;20034;-95
2021/12/22 10:26:33;;;;;;;9.15;4.63;;;;;;;5.98;80.93;102499.56;4959358;28;20066;-95
2021/12/22 10:29:07;;;;;;;10.68;4.45;;;;;;;6.05;80.59;102517.59;4943316;29;20032;-95
2021/12/22 10:31:45;;;;;;;15.07;4.32;;;;;;;6.61;80.51;102620.00;4933241;28;20042;-95
2021/12/22 10:34:19;;;;;;;10.35;4.72;;;;;;;6.64;79.84;102617.72;4946920;28;20031;-95
2021/12/22 10:36:56;;;;;;;12.43;4.50;;;;;;;6.26;80.63;102559.38;4934659;28;20480;-95
2021/12/22 10:39:28;;;;;;;;;;;;;;;7.03;80.75;102676.97;4941215;28;20050;-96
2021/12/22 10:42:11;;;;;;;7.38;4.03;;;;;;;6.48;80.72;102591.00;4943898;29;19911;-96
2021/12/22 10:44:49;;;;;;;11.23;4.43;;;;;;;7.02;80.01;102679.41;4947326;28;20519;-96
2021/12/22 10:49:14;;;;;;;7.90;4.07;;;;;;;5.94;80.36;102489.63;4949025;28;20173;-95
2021/12/22 10:50:25;;;;;;;9.27;4.72;;;;;;;6.04;80.91;102504.47;4954632;28;20417;-96
2021/12/22 10:52:55;;;;;;;10.02;4.38;;;;;;;7.02;81.04;102669.94;4935619;29;20038;-93
2021/12/22 10:55:40;;;;;;;10.50;4.90;;;;;;;6.87;81.31;102653.75;4926154;29;20047;-93
2021/12/22 10:58:28;;;;;;;10.70;4.60;;;;;;;7.02;81.42;102666.44;4928727;29;20031;-93
2021/12/22 11:01:17;;;;;;;8.20;4.55;;;;;;;6.65;81.30;102596.19;4923409;29;20039;-94
2021/12/22 11:03:50;;;;;;;8.43;4.40;;;;;;;6.26;81.28;102513.59;4935571;28;20035;-93
2021/12/22 11:06:37;;;;;;;9.35;4.53;;;;;;;7.08;81.75;102654.03;4943766;28;20066;-95
2021/12/22 11:09:18;;;;;;;8.00;4.65;;;;;;;6.80;81.97;102619.25;4935142;28;20030;-94
2021/12/22 11:11:57;;;;;;;8.45;4.13;;;;;;;6.84;81.84;102616.19;4930578;28;20412;-94
2021/12/22 11:15:15;;;;;;;9.23;4.18;;;;;;;7.02;82.26;102659.53;4930015;28;20034;-94
2021/12/22 11:21:22;;;;;;;8.88;3.92;;;;;;;7.06;81.94;102653.88;4958784;28;20509;-93
2021/12/22 11:23:52;;;;;;;8.68;3.88;;;;;;;7.06;81.67;102656.47;4940550;28;20109;-91
2021/12/22 11:26:33;;;;;;;9.05;4.15;;;;;;;7.07;81.75;102647.94;4939067;28;20054;-92
2021/12/22 11:29:00;;;;;;;7.90;4.15;;;;;;;6.87;82.00;102611.28;4940210;28;20038;-92
2021/12/22 11:31:48;;;;;;;8.05;4.00;;;;;;;7.07;82.12;102650.53;4953388;28;20121;-93
2021/12/22 11:34:19;;;;;;;6.13;3.67;;;;;;;6.89;81.73;102595.09;4957249;28;20113;-94
2021/12/22 11:36:50;;;;;;;7.28;3.78;;;;;;;7.24;80.70;102641.78;4940779;28;20034;-93
2021/12/22 11:39:34;;;;;;;8.20;3.95;;;;;;;6.96;80.80;102586.19;4940663;28;20114;-94
2021/12/22 11:42:16;;;;;;;7.65;3.70;;;;;;;7.07;80.73;102606.38;4941205;28;20452;-92
2021/12/22 11:45:22;;;;;;;5.63;3.55;;;;;;;7.34;80.74;102643.59;4936002;28;20061;-93
2021/12/22 11:47:57;;;;;;;9.27;4.03;;;;;;;6.88;80.19;102563.78;4970040;28;20062;-92
2021/12/22 11:50:29;;;;;;;14.75;4.03;;;;;;;6.98;80.26;102595.06;4962029;28;20035;-89
2021/12/22 11:53:02;;;;;;;14.25;4.28;;;;;;;7.04;75.12;102631.13;4950868;28;20011;-95
2021/12/22 11:55:40;;;;;;;13.73;4.88;;;;;;;7.35;71.18;102627.25;4954908;28;20035;-95
2021/12/22 11:58:26;;;;;;;15.25;5.03;;;;;;;7.27;72.48;102625.56;4968788;28;20030;-96
2021/12/22 12:01:08;;;;;;;14.38;4.93;;;;;;;6.33;73.21;102458.06;4957727;29;20031;-95
2021/12/22 12:03:47;;;;;;;14.00;4.80;;;;;;;6.81;73.22;102543.16;4949517;29;20033;-93
2021/12/22 12:06:28;;;;;;;;;;;;;;;;;;;;;
2021/12/22 12:09:22;;;;;;;13.52;4.70;;;;;;;7.30;73.29;102625.84;4959144;28;20126;-95
2021/12/22 12:12:06;;;;;;;14.95;5.35;;;;;;;6.20;73.08;102430.00;4952170;29;20066;-94
2021/12/22 12:14:42;;;;;;;11.88;5.13;;;;;;;7.22;73.63;102614.75;4957902;28;20035;-95
2021/12/22 12:21:40;;;;;;;15.30;4.80;;;;;;;6.23;73.33;102443.25;4969054;28;20070;-91
2021/12/22 12:23:49;;;;;;;14.68;4.97;;;;;;;6.49;73.65;102508.09;4972078;28;20049;-94
2021/12/22 12:26:43;;;;;;;12.43;4.40;;;;;;;7.26;72.77;102614.28;4950568;28;20041;-93
2021/12/22 12:29:56;;;;;;;11.88;4.60;;;;;;;7.07;73.16;102610.63;5530068;23;20057;-94
2021/12/22 12:36:09;;;;;;;13.40;4.88;;;;;;;5.94;72.89;102417.00;5017726;28;20049;-95
2021/12/22 12:39:13;;;;;;;12.73;5.00;;;;;;;7.04;72.69;102608.66;5024144;28;20014;-91
2021/12/22 12:41:59;;;;;;;10.90;4.75;;;;;;;6.08;72.58;102431.38;5002449;28;20102;-94
2021/12/22 12:44:30;;;;;;;11.88;4.55;;;;;;;6.01;72.75;102426.34;4998875;28;20043;-95
2021/12/22 12:47:25;;;;;;;12.13;4.50;;;;;;;6.15;72.84;102461.44;5003442;28;20041;-95
2021/12/22 12:50:27;;;;;;;12.55;4.22;;;;;;;5.98;73.45;102447.69;4994243;28;20133;-95
2021/12/22 12:53:22;;;;;;;11.63;4.43;;;;;;;6.63;72.67;102547.50;4998935;28;20078;-95
2021/12/22 12:56:22;;;;;;;12.85;4.28;;;;;;;6.74;73.69;102596.19;4998731;28;20006;-95
2021/12/22 13:06:51;;;;;;;12.95;5.22;;;;;;;5.42;73.32;102435.09;5007680;28;20038;-94
2021/12/22 13:20:18;;;;;;;12.77;5.03;;;;;;;6.52;73.29;102599.25;4996393;28;20050;-93
2021/12/22 13:23:06;;;;;;;10.65;4.65;;;;;;;6.46;73.64;102593.44;4981947;28;20038;-94
2021/12/22 13:25:53;;;;;;;11.65;4.80;;;;;;;6.46;73.66;102597.72;4966061;28;20041;-92
2021/12/22 13:28:32;;;;;;;11.95;4.63;;;;;;;6.41;73.59;102586.84;4959425;28;20030;-94
2021/12/22 13:31:07;;;;;;;12.95;4.75;;;;;;;6.35;73.76;102585.34;4961259;28;20075;-92
2021/12/22 13:33:46;;;;;;;9.85;4.82;;;;;;;6.06;73.58;102557.41;4962119;28;20026;-94
2021/12/22 13:36:34;;;;;;;10.57;4.85;;;;;;;6.26;73.90;102596.63;4952296;28;20026;-94
2021/12/22 13:39:04;;;;;;;;;;;;;;;6.29;73.93;102593.44;4952030;28;20042;-95
2021/12/22 13:41:37;;;;;;;9.63;4.45;;;;;;;6.23;74.07;102593.72;4954351;28;19914;-91
2021/12/22 13:44:16;;;;;;;10.65;5.30;;;;;;;5.78;73.69;102513.09;4957464;28;20569;-92
2021/12/22 13:47:01;;;;;;;9.13;5.05;;;;;;;6.08;74.61;102597.38;4952705;28;20035;-91
2021/12/22 13:49:44;;;;;;;9.52;4.82;;;;;;;5.94;74.55;102577.78;4967425;28;20034;-91
2021/12/22 13:52:22;;;;;;;11.43;4.93;;;;;;;5.80;74.71;102559.91;4960908;28;20026;-93
2021/12/22 13:54:48;;;;;;;9.20;4.97;;;;;;;5.68;74.97;102554.41;4953939;28;20038;-94
2021/12/22 13:57:25;;;;;;;12.35;5.28;;;;;;;6.07;74.52;102604.22;4958536;28;20031;-95
2021/12/22 14:00:03;;;;;;;8.50;4.70;;;;;;;5.88;74.92;102588.47;4956975;28;20101;-94
2021/12/22 14:02:42;;;;;;;12.05;4.60;;;;;;;5.54;75.11;102539.09;4945923;28;20030;-94
2021/12/22 14:05:22;;;;;;;9.40;4.70;;;;;;;5.61;75.40;102562.28;4955677;28;20030;-94
2021/12/22 14:07:50;;;;;;;13.10;4.80;;;;;;;5.61;75.25;102555.44;4941649;28;20503;-94